Time;durP1;ratioP1;P1;durP2;ratioP2;P2;SDS_P1;SDS_P2;PMS_P1;PMS_P2;Temp;Humidity;BMP_temperature;BMP_pressure;BME280_temperature;BME280_humidity;BME280_pressure;Samples;Min_cycle;Max_cycle;Signal;HPM_P1;HPM_P2
2022/12/17 13:09:26;;;;;;;31.70;24.67;;;;;;;14.25;80.45;97613.22;10248173;28;20449;-57
2022/12/17 13:14:29;;;;;;;21.70;16.23;;;;;;;14.09;80.73;97612.63;10248043;28;20070;-57
2022/12/17 13:19:39;;;;;;;17.55;14.25;;;;;;;13.89;80.80;97611.25;10249697;28;20523;-58
2022/12/17 13:24:39;;;;;;;22.20;15.02;;;;;;;13.74;81.67;97645.38;10233660;28;20054;-57
2022/12/17 13:29:38;;;;;;;22.75;16.50;;;;;;;13.43;82.88;97621.47;10243927;28;20057;-58
2022/12/17 13:34:49;;;;;;;23.95;17.40;;;;;;;13.19;83.93;97633.97;10248473;28;20030;-59
2022/12/17 13:39:57;;;;;;;19.67;13.88;;;;;;;13.03;84.16;97648.94;10246558;28;20108;-59
2022/12/17 13:44:58;;;;;;;22.02;14.82;;;;;;;12.96;84.06;97657.72;10245602;28;20142;-59
2022/12/17 13:49:59;;;;;;;37.38;27.02;;;;;;;12.79;84.82;97657.03;10245931;28;20066;-58
2022/12/17 13:55:10;;;;;;;36.70;26.42;;;;;;;12.59;85.16;97650.31;10243345;28;20137;-59
2022/12/17 14:10:27;;;;;;;20.10;14.57;;;;;;;12.15;87.23;97661.97;10494037;23;20081;-57
2022/12/17 14:15:30;;;;;;;35.60;25.60;;;;;;;12.02;88.88;97694.19;10268926;28;20383;-55
2022/12/17 14:20:35;;;;;;;14.75;10.60;;;;;;;11.76;88.53;97710.84;10284562;28;20088;-57
2022/12/17 14:25:39;;;;;;;18.48;13.27;;;;;;;11.70;88.27;97731.66;10280520;28;20068;-57
2022/12/17 14:30:41;;;;;;;15.75;9.45;;;;;;;11.55;88.47;97753.41;9398496;28;10000770;-57
2022/12/17 14:35:40;;;;;;;19.08;12.40;;;;;;;11.51;88.44;97749.09;10285714;28;20064;-54
2022/12/17 14:40:40;;;;;;;18.52;12.52;;;;;;;11.53;87.93;97775.06;10276478;28;20062;-55
2022/12/17 14:46:19;;;;;;;18.63;12.48;;;;;;;11.47;88.04;97788.94;10276624;28;20073;-54
2022/12/17 14:51:20;;;;;;;19.85;15.13;;;;;;;11.19;88.78;97788.19;10275306;28;20074;-54
2022/12/17 14:56:22;;;;;;;22.60;15.18;;;;;;;10.92;90.22;97809.91;10282356;28;20076;-54
2022/12/17 15:01:21;;;;;;;20.63;14.90;;;;;;;10.64;91.50;97822.88;10279110;28;20113;-54
2022/12/17 15:06:20;;;;;;;16.50;11.60;;;;;;;10.29;93.05;97834.06;10283061;28;20116;-54
2022/12/17 15:11:21;;;;;;;17.98;12.48;;;;;;;10.12;93.26;97840.94;10279918;28;20131;-55
2022/12/17 15:16:20;;;;;;;26.63;16.17;;;;;;;9.84;93.51;97837.41;10284173;28;20076;-54
2022/12/17 15:21:19;;;;;;;36.85;19.30;;;;;;;9.63;94.78;97852.03;10282284;28;20077;-54
2022/12/17 15:26:18;;;;;;;;;;;;;;;9.49;94.44;97877.03;10286295;28;20073;-54
2022/12/17 15:31:17;;;;;;;28.60;19.73;;;;;;;9.43;95.07;97882.16;10286293;28;19961;-53
2022/12/17 15:36:16;;;;;;;22.55;14.05;;;;;;;9.22;95.83;97903.56;10281249;28;20041;-54
2022/12/17 15:46:32;;;;;;;20.45;13.02;;;;;;;8.98;96.79;97933.59;10291371;28;20061;-54
2022/12/17 15:51:31;;;;;;;15.43;10.00;;;;;;;8.87;96.77;97941.25;10290975;28;20022;-54
2022/12/17 15:56:30;;;;;;;16.55;11.05;;;;;;;8.96;95.93;97944.81;10291194;28;20483;-53
2022/12/17 16:01:29;;;;;;;17.67;13.38;;;;;;;8.98;96.09;97940.50;10290480;28;20036;-53
2022/12/17 16:06:28;;;;;;;12.73;8.88;;;;;;;8.86;95.98;97951.63;10290250;28;20038;-54
2022/12/17 16:11:27;;;;;;;15.55;10.65;;;;;;;8.99;95.18;97947.41;10289215;28;20095;-54
2022/12/17 16:16:28;;;;;;;19.08;13.10;;;;;;;9.13;94.75;97961.31;10289808;28;20034;-54
2022/12/17 16:21:27;;;;;;;27.35;18.67;;;;;;;9.25;94.12;97971.78;10288015;28;20130;-54
2022/12/17 16:26:26;;;;;;;23.88;17.73;;;;;;;9.29;93.36;97980.47;10256763;28;20070;-54
2022/12/17 16:31:25;;;;;;;48.20;33.20;;;;;;;9.29;93.22;97991.69;10291022;28;20030;-54
2022/12/17 16:36:24;;;;;;;27.45;17.70;;;;;;;9.45;93.29;98002.19;10290522;28;20108;-54
2022/12/17 16:41:23;;;;;;;19.13;14.65;;;;;;;9.53;92.45;97997.91;10290441;28;20431;-54
2022/12/17 16:46:27;;;;;;;24.27;19.20;;;;;;;9.62;92.02;97997.97;10289856;28;20033;-54
2022/12/17 16:51:27;;;;;;;23.65;17.80;;;;;;;9.70;92.10;98000.63;10286891;28;20130;-59
2022/12/17 16:56:27;;;;;;;26.10;20.33;;;;;;;9.81;91.33;98008.47;10287006;28;20085;-54
2022/12/17 17:01:27;;;;;;;24.25;20.08;;;;;;;9.89;91.25;98023.22;10287438;28;20080;-54
2022/12/17 17:06:26;;;;;;;34.08;25.00;;;;;;;9.96;91.91;98031.91;10277843;28;20116;-54
2022/12/17 17:11:25;;;;;;;31.10;23.42;;;;;;;9.98;91.33;98030.19;10276349;28;20124;-54
2022/12/17 17:16:25;;;;;;;29.17;22.98;;;;;;;10.04;91.29;98037.13;10289087;28;20053;-54
2022/12/17 17:21:35;;;;;;;27.90;20.27;;;;;;;10.11;91.18;98052.72;10287753;28;20084;-54
2022/12/17 17:26:34;;;;;;;69.40;50.92;;;;;;;9.96;90.80;98050.06;10289163;28;20103;-54
2022/12/17 17:31:33;;;;;;;;;;;;;;;10.04;91.42;98069.09;10288840;28;20085;-54
2022/12/17 17:36:32;;;;;;;58.37;41.77;;;;;;;10.04;91.73;98076.00;10278723;28;20015;-54
2022/12/17 17:41:34;;;;;;;67.68;47.20;;;;;;;10.03;91.59;98079.44;10288459;28;20386;-54
2022/12/17 17:46:33;;;;;;;78.18;44.88;;;;;;;9.92;92.16;98092.34;10301312;28;20131;-54
2022/12/17 17:51:36;;;;;;;328.65;152.82;;;;;;;9.75;92.18;98082.72;10288281;28;20113;-54
2022/12/17 17:56:37;;;;;;;481.25;221.05;;;;;;;9.77;91.53;98098.31;10286919;28;20073;-54
2022/12/17 18:01:42;;;;;;;62.97;35.88;;;;;;;9.86;91.69;98102.66;10285001;28;20069;-54
2022/12/17 18:06:43;;;;;;;378.73;201.27;;;;;;;9.84;91.63;98106.97;10287702;28;20057;-54
2022/12/17 18:11:42;;;;;;;498.08;284.75;;;;;;;9.78;91.88;98108.66;10287352;28;20077;-54
2022/12/17 18:16:44;;;;;;;266.33;148.23;;;;;;;9.77;91.61;98112.13;10283770;28;20495;-54
2022/12/17 18:21:44;;;;;;;72.72;45.97;;;;;;;9.80;91.55;98110.41;10287860;28;20455;-54
2022/12/17 18:26:44;;;;;;;206.70;116.93;;;;;;;9.87;91.54;98120.84;10261778;28;20069;-54
2022/12/17 18:31:43;;;;;;;28.92;21.40;;;;;;;9.80;91.20;98121.66;10283102;28;20491;-54
2022/12/17 18:36:44;;;;;;;58.42;47.33;;;;;;;9.73;91.21;98125.03;10285167;28;20077;-54
2022/12/17 18:47:01;;;;;;;45.30;32.05;;;;;;;9.87;91.67;98140.72;10288082;28;20077;-54
2022/12/17 18:52:00;;;;;;;51.53;39.55;;;;;;;9.86;91.55;98146.72;10286019;28;20049;-54
2022/12/17 18:56:59;;;;;;;87.60;55.47;;;;;;;9.85;91.44;98145.88;10282072;28;20135;-54
2022/12/17 19:01:58;;;;;;;;;;;;;;;9.90;91.10;98164.06;10277622;28;20428;-54
2022/12/17 19:06:57;;;;;;;42.33;30.98;;;;;;;9.93;90.63;98161.47;10278783;28;20686;-54
2022/12/17 19:11:56;;;;;;;93.63;56.53;;;;;;;9.91;90.89;98165.78;10266805;28;20042;-54
2022/12/17 19:16:56;;;;;;;72.25;42.85;;;;;;;9.85;90.89;98181.31;10293040;28;20061;-54
2022/12/17 19:21:57;;;;;;;106.18;50.47;;;;;;;9.87;90.82;98185.63;10293206;28;20069;-54
2022/12/17 19:26:56;;;;;;;23.27;16.95;;;;;;;9.76;90.99;98182.94;10323866;28;20108;-54
2022/12/17 19:31:55;;;;;;;64.00;34.78;;;;;;;9.81;91.42;98200.25;10292808;28;20034;-54
2022/12/17 19:36:54;;;;;;;237.23;123.47;;;;;;;9.82;91.23;98209.78;10292277;28;20096;-54
2022/12/17 19:41:53;;;;;;;606.38;340.15;;;;;;;9.77;91.46;98209.75;10291819;28;20042;-54
2022/12/17 19:46:52;;;;;;;270.15;141.60;;;;;;;9.73;91.75;98218.34;10290598;28;20149;-54
2022/12/17 19:51:51;;;;;;;;;;;;;;;9.74;92.02;98230.44;10290302;28;20078;-54
2022/12/17 19:56:50;;;;;;;72.55;44.42;;;;;;;9.67;91.64;98229.50;10289697;28;20112;-54
2022/12/17 20:01:49;;;;;;;235.45;129.90;;;;;;;9.67;91.74;98231.22;10288204;28;20093;-54
2022/12/17 20:06:48;;;;;;;112.60;63.80;;;;;;;9.62;91.93;98240.69;10285389;28;20037;-54
2022/12/17 20:11:47;;;;;;;101.63;60.40;;;;;;;9.64;92.69;98249.34;10282594;28;20480;-54
2022/12/17 20:16:55;;;;;;;141.15;85.88;;;;;;;9.63;92.50;98253.66;10287664;28;20030;-54
2022/12/17 20:21:54;;;;;;;154.73;102.55;;;;;;;9.63;92.88;98264.03;10290322;28;20519;-54
2022/12/17 20:26:53;;;;;;;96.55;69.60;;;;;;;9.53;92.99;98252.66;8495747;28;10000863;-54
2022/12/17 20:31:52;;;;;;;;;;;;;;;9.60;92.31;98274.34;10261287;28;20538;-54
2022/12/17 20:36:52;;;;;;;72.93;52.83;;;;;;;9.56;92.98;98281.22;10287134;28;20455;-54
2022/12/17 20:41:51;;;;;;;45.67;35.05;;;;;;;9.50;92.85;98275.09;10286607;28;20080;-54
2022/12/17 20:46:50;;;;;;;66.22;41.78;;;;;;;9.57;92.92;98284.69;10286751;28;20112;-54
2022/12/17 20:51:49;;;;;;;35.10;26.00;;;;;;;9.49;93.46;98289.78;10284259;28;20069;-54
2022/12/17 20:56:48;;;;;;;30.98;22.48;;;;;;;9.32;94.29;98294.75;10287712;28;20037;-54
2022/12/17 21:01:48;;;;;;;54.33;41.90;;;;;;;9.32;94.78;98307.72;10287775;28;20069;-54
2022/12/17 21:06:47;;;;;;;44.75;30.17;;;;;;;9.17;95.16;98299.69;10287731;28;20084;-54
2022/12/17 21:11:47;;;;;;;;;;;;;;;9.15;95.61;98310.03;10287533;28;20634;-54
2022/12/17 21:16:46;;;;;;;42.78;30.73;;;;;;;9.05;96.42;98303.00;10286290;28;19961;-54
2022/12/17 21:21:45;;;;;;;42.28;30.40;;;;;;;9.05;97.04;98315.06;10283301;28;20074;-54
2022/12/17 21:26:45;;;;;;;;;;;;;;;9.07;97.25;98308.19;10268455;28;20061;-54
2022/12/17 21:31:47;;;;;;;47.33;32.50;;;;;;;9.05;97.33;98317.66;10286162;28;20020;-54
2022/12/17 21:36:47;;;;;;;67.63;45.78;;;;;;;9.00;98.30;98311.56;10285121;28;20057;-54
2022/12/17 21:43:00;;;;;;;42.28;27.83;;;;;;;9.06;98.33;98316.78;10286222;28;20065;-54
2022/12/17 21:47:05;;;;;;;43.97;29.63;;;;;;;9.04;98.39;98331.44;10286206;28;20072;-54
2022/12/17 21:52:04;;;;;;;46.88;31.55;;;;;;;8.99;98.63;98330.50;10285016;28;20045;-54
2022/12/17 21:57:03;;;;;;;44.00;30.48;;;;;;;9.02;99.00;98334.03;10284101;28;20077;-54
2022/12/17 22:02:02;;;;;;;69.35;41.67;;;;;;;8.93;98.75;98342.50;10281124;28;20026;-54
2022/12/17 22:07:01;;;;;;;47.40;30.25;;;;;;;8.88;99.21;98351.94;10282852;28;20121;-54
2022/12/17 22:17:18;;;;;;;48.78;30.77;;;;;;;8.71;100.00;98363.72;10282843;28;20065;-54
2022/12/17 22:22:17;;;;;;;27.48;19.10;;;;;;;8.34;100.00;98364.81;10281598;28;20022;-54
2022/12/17 22:27:16;;;;;;;22.88;15.35;;;;;;;7.80;100.00;98375.03;10282420;28;20026;-54
2022/12/17 22:37:33;;;;;;;19.30;14.15;;;;;;;7.20;100.00;98363.41;10265254;28;20107;-54
2022/12/17 22:47:49;;;;;;;18.05;13.07;;;;;;;7.12;100.00;98379.56;10269952;28;20149;-54
2022/12/17 22:52:48;;;;;;;20.88;14.35;;;;;;;7.18;100.00;98379.69;10281322;28;20021;-54
2022/12/17 22:57:47;;;;;;;21.52;15.25;;;;;;;7.30;100.00;98368.78;10290363;28;20029;-54
2022/12/17 23:02:46;;;;;;;50.33;33.90;;;;;;;7.45;100.00;98374.28;10287960;28;20038;-54
2022/12/17 23:07:45;;;;;;;33.80;24.25;;;;;;;7.55;100.00;98385.72;10284674;28;20045;-54
2022/12/17 23:12:50;;;;;;;47.92;28.33;;;;;;;7.52;100.00;98383.03;10288773;28;20037;-54
2022/12/17 23:17:50;;;;;;;32.42;22.90;;;;;;;7.56;100.00;98384.84;10279548;28;20133;-55
2022/12/17 23:22:49;;;;;;;67.50;39.88;;;;;;;7.63;100.00;98386.72;10282196;28;20188;-54
2022/12/17 23:27:49;;;;;;;39.15;27.42;;;;;;;7.69;100.00;98388.59;10279307;28;20124;-54
2022/12/17 23:32:48;;;;;;;42.20;28.90;;;;;;;7.83;100.00;98402.66;10281973;28;20145;-54
2022/12/17 23:37:48;;;;;;;60.40;38.10;;;;;;;7.91;100.00;98418.28;10286952;28;20038;-54
2022/12/17 23:42:47;;;;;;;101.30;63.58;;;;;;;7.87;100.00;98409.59;10270906;28;20121;-54
2022/12/17 23:47:46;;;;;;;30.42;19.98;;;;;;;7.80;100.00;98428.41;10276932;28;20113;-54
2022/12/17 23:52:45;;;;;;;85.90;57.63;;;;;;;7.80;100.00;98443.91;10274437;28;20052;-54
2022/12/17 23:57:44;;;;;;;20.50;12.38;;;;;;;7.61;100.00;98448.66;10273035;28;20041;-54
